createdAt,value
2023-04-29T00:00:59.877Z,80.46
2023-04-29T00:01:59.929Z,80.97
2023-04-29T00:03:00.114Z,80.97
2023-04-29T00:04:00.298Z,80.97
2023-04-29T00:05:00.456Z,81.07
2023-04-29T00:06:00.439Z,81.07
2023-04-29T00:07:00.327Z,81.07
2023-04-29T00:08:00.433Z,80.87
2023-04-29T00:09:00.490Z,81.07
2023-04-29T00:10:00.555Z,81.27
2023-04-29T00:11:00.668Z,81.58
2023-04-29T00:12:00.771Z,80.76
2023-04-29T00:13:00.834Z,80.76
2023-04-29T00:14:00.891Z,81.07
2023-04-29T00:15:01.011Z,81.17
2023-04-29T00:16:01.041Z,81.07
2023-04-29T00:17:01.232Z,81.27
2023-04-29T00:18:01.279Z,81.17
2023-04-29T00:19:01.285Z,81.38
2023-04-29T00:20:01.384Z,81.48
2023-04-29T00:21:01.449Z,81.38
2023-04-29T00:22:01.564Z,81.38
2023-04-29T00:23:01.692Z,81.38
2023-04-29T00:24:01.717Z,81.79
2023-04-29T00:25:01.795Z,81.48
2023-04-29T00:26:01.884Z,81.99
2023-04-29T00:27:01.958Z,81.58
2023-04-29T00:28:02.125Z,81.07
2023-04-29T00:29:02.127Z,81.38
2023-04-29T00:30:02.220Z,81.17
2023-04-29T00:31:02.327Z,81.38
2023-04-29T00:32:02.347Z,81.58
2023-04-29T00:33:02.564Z,81.68
2023-04-29T00:34:02.515Z,81.58
2023-04-29T00:35:02.563Z,82.29
2023-04-29T00:36:02.641Z,81.68
2023-04-29T00:37:02.702Z,81.38
2023-04-29T00:38:02.784Z,81.68
2023-04-29T00:39:02.911Z,81.88
2023-04-29T00:40:02.979Z,81.88
2023-04-29T00:41:03.074Z,81.79
2023-04-29T00:42:03.140Z,81.99
2023-04-29T00:43:03.201Z,81.88
2023-04-29T00:44:03.368Z,82.29
2023-04-29T00:45:03.414Z,81.99
2023-04-29T00:46:03.526Z,81.99
2023-04-29T00:47:03.591Z,81.99
2023-04-29T00:48:03.694Z,81.79
2023-04-29T00:49:03.796Z,81.79
2023-04-29T00:50:03.823Z,81.82
2023-04-29T00:51:03.909Z,82.13
2023-04-29T00:52:03.955Z,82.23
2023-04-29T00:53:04.047Z,82.23
2023-04-29T00:54:04.169Z,81.82
2023-04-29T00:55:04.219Z,82.23
2023-04-29T00:56:04.308Z,82.23
2023-04-29T00:57:04.417Z,82.34
2023-04-29T00:58:04.529Z,82.43
2023-04-29T00:59:04.648Z,82.23
2023-04-29T01:00:04.687Z,82.23
2023-04-29T01:01:04.786Z,82.75
2023-04-29T01:02:04.889Z,82.43
2023-04-29T01:03:04.973Z,82.54
2023-04-29T01:04:05.319Z,82.34
2023-04-29T01:05:05.239Z,82.54
2023-04-29T01:06:05.218Z,82.43
2023-04-29T01:07:05.224Z,82.64
2023-04-29T01:08:05.288Z,82.43
2023-04-29T01:09:05.387Z,82.64
2023-04-29T01:10:05.515Z,82.95
2023-04-29T01:11:05.632Z,82.95
2023-04-29T01:12:05.694Z,82.84
2023-04-29T01:13:05.773Z,82.75
2023-04-29T01:14:05.806Z,82.75
2023-04-29T01:15:05.867Z,83.15
2023-04-29T01:16:05.966Z,82.95
2023-04-29T01:17:06.038Z,82.75
2023-04-29T01:18:06.182Z,82.64
2023-04-29T01:19:06.229Z,83.05
2023-04-29T01:20:06.285Z,82.75
2023-04-29T01:21:06.354Z,83.25
2023-04-29T01:22:06.413Z,83.66
2023-04-29T01:23:06.539Z,83.97
2023-04-29T01:24:06.573Z,83.76
2023-04-29T01:25:06.645Z,83.97
2023-04-29T01:26:06.715Z,84.99
2023-04-29T01:27:06.768Z,84.99
2023-04-29T01:28:06.880Z,84.69
2023-04-29T01:29:06.973Z,85.40
2023-04-29T01:30:07.005Z,85.61
2023-04-29T01:31:07.141Z,86.36
2023-04-29T01:32:07.176Z,86.16
2023-04-29T01:33:07.286Z,86.05
2023-04-29T01:34:07.370Z,86.05
2023-04-29T01:35:07.410Z,87.18
2023-04-29T01:36:07.478Z,87.59
2023-04-29T01:37:07.556Z,87.59
2023-04-29T01:38:07.654Z,87.38
2023-04-29T01:39:07.776Z,87.59
2023-04-29T01:40:07.900Z,88.82
2023-04-29T01:41:07.932Z,88.41
2023-04-29T01:42:08.000Z,89.27
2023-04-29T01:43:08.100Z,89.98
2023-04-29T01:44:08.221Z,89.98
2023-04-29T01:45:08.341Z,89.89
2023-04-29T01:46:08.359Z,90.19
2023-04-29T01:47:08.465Z,90.19
2023-04-29T01:48:08.528Z,90.91
2023-04-29T01:49:08.624Z,91.11
2023-04-29T01:50:08.794Z,90.91
2023-04-29T01:51:08.754Z,91.87
2023-04-29T01:52:08.853Z,91.56
2023-04-29T01:53:08.913Z,91.77
2023-04-29T01:54:09.009Z,92.28
2023-04-29T01:55:09.108Z,92.08
2023-04-29T01:56:09.140Z,91.97
2023-04-29T01:57:09.218Z,92.18
2023-04-29T01:58:09.330Z,92.38
2023-04-29T01:59:09.366Z,92.38
2023-04-29T02:00:09.462Z,92.59
2023-04-29T02:01:09.587Z,92.69
2023-04-29T02:02:09.683Z,93.00
2023-04-29T02:03:09.829Z,93.41
2023-04-29T02:04:09.911Z,93.92
2023-04-29T02:05:09.954Z,93.82
2023-04-29T02:06:09.974Z,93.92
2023-04-29T02:07:10.127Z,93.92
2023-04-29T02:08:10.156Z,94.02
2023-04-29T02:09:10.214Z,94.12
2023-04-29T02:10:10.332Z,94.23
2023-04-29T02:11:10.389Z,94.02
2023-04-29T02:12:10.536Z,93.92
2023-04-29T02:13:10.586Z,93.92
2023-04-29T02:14:10.669Z,93.92
2023-04-29T02:15:10.732Z,94.02
2023-04-29T02:16:10.902Z,94.02
2023-04-29T02:17:10.922Z,94.02
2023-04-29T02:18:11.051Z,94.23
2023-04-29T02:19:11.566Z,94.43
2023-04-29T02:20:11.200Z,94.33
2023-04-29T02:21:11.274Z,94.12
2023-04-29T02:22:11.350Z,94.12
2023-04-29T02:23:11.488Z,94.23
2023-04-29T02:24:11.538Z,94.43
2023-04-29T02:25:11.591Z,94.33
2023-04-29T02:26:11.705Z,94.43
2023-04-29T02:27:11.757Z,94.33
2023-04-29T02:28:11.880Z,94.43
2023-04-29T02:29:11.925Z,94.54
2023-04-29T02:30:11.993Z,94.43
2023-04-29T02:36:16.060Z,94.95
2023-04-29T02:37:16.102Z,94.95
2023-04-29T02:38:16.174Z,94.95
2023-04-29T02:39:16.296Z,94.84
2023-04-29T02:40:16.456Z,94.95
2023-04-29T02:41:16.460Z,94.84
2023-04-29T02:42:16.551Z,94.84
2023-04-29T02:43:16.670Z,94.95
2023-04-29T02:44:16.737Z,95.15
2023-04-29T02:45:16.885Z,95.36
2023-04-29T02:46:16.970Z,95.36
2023-04-29T02:47:17.009Z,95.36
2023-04-29T02:48:17.093Z,95.46
2023-04-29T02:49:17.173Z,95.87
2023-04-29T02:50:17.309Z,95.76
2023-04-29T02:51:17.305Z,95.87
2023-04-29T02:52:17.393Z,95.76
2023-04-29T02:53:17.485Z,95.76
2023-04-29T02:54:17.578Z,95.76
2023-04-29T02:55:17.711Z,95.97
2023-04-29T02:56:17.748Z,96.12
2023-04-29T02:57:17.884Z,96.01
2023-04-29T02:58:17.916Z,96.22
2023-04-29T02:59:18.013Z,96.32
2023-04-29T03:00:18.093Z,96.22
2023-04-29T03:01:18.237Z,96.12
2023-04-29T03:02:18.519Z,96.17
2023-04-29T03:03:18.410Z,96.42
2023-04-29T03:04:18.503Z,96.32
2023-04-29T03:05:18.499Z,95.97
2023-04-29T03:06:18.608Z,95.76
2023-04-29T03:07:18.718Z,95.76
2023-04-29T03:08:22.034Z,95.87
2023-04-29T03:09:18.852Z,96.07
2023-04-29T03:10:18.920Z,96.28
2023-04-29T03:11:18.996Z,96.38
2023-04-29T03:12:19.223Z,96.79
2023-04-29T03:13:19.187Z,96.99
2023-04-29T03:14:19.280Z,96.79
2023-04-29T03:15:19.374Z,96.89
2023-04-29T03:16:19.486Z,96.94
2023-04-29T03:17:19.576Z,96.79
2023-04-29T03:18:19.698Z,96.79
2023-04-29T03:19:19.684Z,96.79
2023-04-29T03:20:19.764Z,96.79
2023-04-29T03:21:19.847Z,96.79
2023-04-29T03:22:19.931Z,96.89
2023-04-29T03:23:20.071Z,96.99
2023-04-29T03:24:20.127Z,96.99
2023-04-29T03:25:20.191Z,96.99
2023-04-29T03:26:20.323Z,96.89
2023-04-29T03:27:20.353Z,97.20
2023-04-29T03:28:20.465Z,97.20
2023-04-29T03:29:20.544Z,97.09
2023-04-29T03:30:20.590Z,97.20
2023-04-29T03:31:20.703Z,97.30
2023-04-29T03:32:20.761Z,97.30
2023-04-29T03:33:20.845Z,97.40
2023-04-29T03:34:20.980Z,97.50
2023-04-29T03:35:21.006Z,97.50
2023-04-29T03:36:21.113Z,97.71
2023-04-29T03:37:21.211Z,97.61
2023-04-29T03:38:21.306Z,97.61
2023-04-29T03:39:21.404Z,97.71
2023-04-29T03:40:21.466Z,97.71
2023-04-29T03:41:21.605Z,97.81
2023-04-29T03:42:21.587Z,97.91
2023-04-29T03:43:21.667Z,98.02
2023-04-29T03:44:21.772Z,98.02
2023-04-29T03:45:21.871Z,97.91
2023-04-29T03:46:21.985Z,97.81
2023-04-29T03:47:24.627Z,98.02
2023-04-29T03:48:22.092Z,98.02
2023-04-29T03:49:22.148Z,98.12
2023-04-29T03:50:22.255Z,98.12
2023-04-29T03:51:22.368Z,98.12
2023-04-29T03:52:22.397Z,98.12
2023-04-29T03:53:22.480Z,98.02
2023-04-29T03:54:22.566Z,98.12
2023-04-29T03:55:22.717Z,98.02
2023-04-29T03:56:22.721Z,98.02
2023-04-29T03:57:22.847Z,98.22
2023-04-29T03:58:22.929Z,98.22
2023-04-29T03:59:22.997Z,98.22
2023-04-29T04:00:23.083Z,98.33
2023-04-29T04:01:23.155Z,98.33
2023-04-29T04:02:23.359Z,98.33
2023-04-29T04:03:23.379Z,98.12
2023-04-29T04:04:23.645Z,98.22
2023-04-29T04:05:23.440Z,98.33
2023-04-29T04:06:23.554Z,98.33
2023-04-29T04:07:23.602Z,98.33
2023-04-29T04:08:23.685Z,98.33
2023-04-29T04:09:23.762Z,98.33
2023-04-29T04:10:23.845Z,98.22
2023-04-29T04:11:23.982Z,98.43
2023-04-29T04:12:24.046Z,98.38
2023-04-29T04:13:24.125Z,98.33
2023-04-29T04:14:24.186Z,98.43
2023-04-29T04:15:24.270Z,98.53
2023-04-29T04:16:24.374Z,98.43
2023-04-29T04:17:24.468Z,98.53
2023-04-29T04:18:24.501Z,98.43
2023-04-29T04:19:24.634Z,98.43
2023-04-29T04:20:24.669Z,98.43
2023-04-29T04:21:24.760Z,98.43
2023-04-29T04:22:24.841Z,98.53
2023-04-29T04:23:24.946Z,98.53
2023-04-29T04:24:25.006Z,98.74
2023-04-29T04:25:25.098Z,98.83
2023-04-29T04:26:25.180Z,98.63
2023-04-29T04:27:28.011Z,98.49
2023-04-29T04:28:25.435Z,98.49
2023-04-29T04:29:25.400Z,98.38
2023-04-29T04:30:25.466Z,98.28
2023-04-29T04:31:25.583Z,98.28
2023-04-29T04:32:25.683Z,98.28
2023-04-29T04:33:25.787Z,98.28
2023-04-29T04:34:25.817Z,98.38
2023-04-29T04:35:25.906Z,98.49
2023-04-29T04:36:25.987Z,98.49
2023-04-29T04:37:26.076Z,98.58
2023-04-29T04:38:26.177Z,98.69
2023-04-29T04:39:26.228Z,98.58
2023-04-29T04:40:26.316Z,98.49
2023-04-29T04:41:26.453Z,98.58
2023-04-29T04:42:26.496Z,98.58
2023-04-29T04:43:26.592Z,98.79
2023-04-29T04:44:26.694Z,98.79
2023-04-29T04:45:26.739Z,98.79
2023-04-29T04:46:26.807Z,98.79
2023-04-29T04:47:26.916Z,98.90
2023-04-29T04:48:26.944Z,98.95
2023-04-29T04:49:27.141Z,99.05
2023-04-29T04:50:27.104Z,99.20
2023-04-29T04:51:27.211Z,98.99
2023-04-29T04:52:27.296Z,99.20
2023-04-29T04:53:27.383Z,99.15
2023-04-29T04:54:27.489Z,99.20
2023-04-29T04:55:27.555Z,99.05
2023-04-29T04:56:27.654Z,98.99
2023-04-29T04:57:27.732Z,98.95
2023-04-29T04:58:27.835Z,98.95
2023-04-29T04:59:27.960Z,98.99
2023-04-29T05:00:28.041Z,98.99
2023-04-29T05:01:28.140Z,99.20
2023-04-29T05:02:28.346Z,99.30
2023-04-29T05:03:28.569Z,99.26
2023-04-29T05:04:28.605Z,99.26
2023-04-29T05:05:28.498Z,99.36
2023-04-29T05:06:28.559Z,99.51
2023-04-29T05:07:28.628Z,99.51
2023-04-29T05:08:28.723Z,99.56
2023-04-29T05:09:28.776Z,99.56
2023-04-29T05:10:28.912Z,99.77
2023-04-29T05:11:28.962Z,99.77
2023-04-29T05:12:29.032Z,99.87
2023-04-29T05:13:29.118Z,99.87
2023-04-29T05:14:29.203Z,99.98
2023-04-29T05:15:29.329Z,99.99
2023-04-29T05:16:29.409Z,99.99
2023-04-29T05:17:29.468Z,99.99
2023-04-29T05:18:29.540Z,99.99
2023-04-29T05:19:29.607Z,99.99
2023-04-29T05:20:29.673Z,99.99
2023-04-29T05:21:29.772Z,99.99
2023-04-29T05:22:29.799Z,99.99
2023-04-29T05:23:29.889Z,99.99
2023-04-29T05:24:29.978Z,99.99
2023-04-29T05:25:30.046Z,99.99
2023-04-29T05:26:30.169Z,99.99
2023-04-29T05:27:30.215Z,99.99
2023-04-29T05:28:30.302Z,99.99
2023-04-29T05:29:30.378Z,99.99
2023-04-29T05:30:30.476Z,99.99
2023-04-29T05:31:30.721Z,99.99
2023-04-29T05:32:30.642Z,99.99
2023-04-29T05:33:30.677Z,99.99
2023-04-29T05:34:30.789Z,99.99
2023-04-29T05:35:30.818Z,99.99
2023-04-29T05:36:30.964Z,99.99
2023-04-29T05:37:30.989Z,99.99
2023-04-29T05:38:31.094Z,99.99
2023-04-29T05:39:31.166Z,99.99
2023-04-29T05:40:31.251Z,99.99
2023-04-29T05:41:31.393Z,99.99
2023-04-29T05:42:31.415Z,99.99
2023-04-29T05:43:32.848Z,99.99
2023-04-29T05:44:31.591Z,99.99
2023-04-29T05:45:31.687Z,99.99
2023-04-29T05:46:31.833Z,99.99
2023-04-29T05:47:31.875Z,99.99
2023-04-29T05:48:31.990Z,99.99
2023-04-29T05:49:32.021Z,99.99
2023-04-29T05:50:32.126Z,99.99
2023-04-29T05:51:32.238Z,99.99
2023-04-29T05:52:32.274Z,99.99
2023-04-29T05:53:32.415Z,99.99
2023-04-29T05:54:32.472Z,99.99
2023-04-29T05:55:32.552Z,99.99
2023-04-29T05:56:32.639Z,99.99
2023-04-29T05:57:32.748Z,99.99
2023-04-29T05:58:32.816Z,99.99
2023-04-29T05:59:32.886Z,99.99
2023-04-29T06:00:32.987Z,99.99
2023-04-29T06:01:33.092Z,99.99
2023-04-29T06:02:35.887Z,99.99
2023-04-29T06:03:34.491Z,99.99
2023-04-29T06:04:33.595Z,99.99
2023-04-29T06:05:33.848Z,99.99
2023-04-29T06:06:33.566Z,99.99
2023-04-29T06:07:33.651Z,99.99
2023-04-29T06:08:33.632Z,99.99
2023-04-29T06:09:33.712Z,99.99
2023-04-29T06:10:33.751Z,99.99
2023-04-29T06:11:33.825Z,99.99
2023-04-29T06:12:33.962Z,99.99
2023-04-29T06:13:34.040Z,99.99
2023-04-29T06:14:34.104Z,99.99
2023-04-29T06:15:34.188Z,99.99
2023-04-29T06:16:34.351Z,99.99
2023-04-29T06:17:34.401Z,99.99
2023-04-29T06:18:34.427Z,99.99
2023-04-29T06:19:34.537Z,99.99
2023-04-29T06:20:36.858Z,99.99
2023-04-29T06:21:34.674Z,99.99
2023-04-29T06:22:34.818Z,99.99
2023-04-29T06:23:34.878Z,99.99
2023-04-29T06:24:34.968Z,99.99
2023-04-29T06:25:35.093Z,99.99
2023-04-29T06:26:35.159Z,99.99
2023-04-29T06:27:35.276Z,99.99
2023-04-29T06:28:35.309Z,99.99
2023-04-29T06:29:35.433Z,99.99
2023-04-29T06:30:35.524Z,99.99
2023-04-29T06:31:35.585Z,99.99
2023-04-29T06:32:35.760Z,99.99
2023-04-29T06:33:36.227Z,99.99
2023-04-29T06:34:35.829Z,99.99
2023-04-29T06:35:35.947Z,99.99
2023-04-29T06:36:35.998Z,99.99
2023-04-29T06:37:37.706Z,99.99
2023-04-29T06:38:36.163Z,99.99
2023-04-29T06:39:36.304Z,99.99
2023-04-29T06:40:36.318Z,99.99
2023-04-29T06:41:36.394Z,99.99
2023-04-29T06:42:36.502Z,99.99
2023-04-29T06:43:36.553Z,99.99
2023-04-29T06:44:36.672Z,99.99
2023-04-29T06:45:36.745Z,99.99
2023-04-29T06:46:36.837Z,99.99
2023-04-29T06:47:36.889Z,99.99
2023-04-29T06:48:36.904Z,99.99
2023-04-29T06:49:37.040Z,99.99
2023-04-29T06:50:37.098Z,99.99
2023-04-29T06:51:37.196Z,99.99
2023-04-29T06:52:37.223Z,99.99
2023-04-29T06:53:37.329Z,99.99
2023-04-29T06:54:37.407Z,99.99
2023-04-29T06:55:37.483Z,99.99
2023-04-29T06:56:37.620Z,99.99
2023-04-29T06:57:37.659Z,99.99
2023-04-29T06:58:37.748Z,99.99
2023-04-29T06:59:37.862Z,99.99
2023-04-29T07:00:37.913Z,99.99
2023-04-29T07:01:38.064Z,99.99
2023-04-29T07:02:38.119Z,99.99
2023-04-29T07:03:38.307Z,99.99
2023-04-29T07:04:38.224Z,99.99
2023-04-29T07:05:38.283Z,99.99
2023-04-29T07:06:38.428Z,99.99
2023-04-29T07:07:38.461Z,99.99
2023-04-29T07:08:38.527Z,99.99
2023-04-29T07:09:38.631Z,99.99
2023-04-29T07:10:38.757Z,99.99
2023-04-29T07:11:38.838Z,99.99
2023-04-29T07:12:38.896Z,99.99
2023-04-29T07:13:38.981Z,99.99
2023-04-29T07:14:39.061Z,99.99
2023-04-29T07:15:39.137Z,99.99
2023-04-29T07:16:39.256Z,99.79
2023-04-29T07:17:39.387Z,99.58
2023-04-29T07:18:39.328Z,99.38
2023-04-29T07:19:39.401Z,99.38
2023-04-29T07:20:39.488Z,99.38
2023-04-29T07:21:39.736Z,98.77
2023-04-29T07:22:39.685Z,98.56
2023-04-29T07:23:39.711Z,98.36
2023-04-29T07:24:39.823Z,98.66
2023-04-29T07:25:39.891Z,98.56
2023-04-29T07:26:39.997Z,98.15
2023-04-29T07:27:40.114Z,97.64
2023-04-29T07:28:40.169Z,97.95
2023-04-29T07:29:40.306Z,97.74
2023-04-29T07:30:40.392Z,98.05
2023-04-29T07:31:40.390Z,98.05
2023-04-29T07:32:40.548Z,98.05
2023-04-29T07:33:40.615Z,98.25
2023-04-29T07:34:40.622Z,98.36
2023-04-29T07:35:40.705Z,98.56
2023-04-29T07:36:40.772Z,98.46
2023-04-29T07:37:42.600Z,98.25
2023-04-29T07:38:41.020Z,98.15
2023-04-29T07:39:41.017Z,98.15
2023-04-29T07:40:41.057Z,98.36
2023-04-29T07:41:41.160Z,98.30
2023-04-29T07:42:41.220Z,97.85
2023-04-29T07:43:42.585Z,97.89
2023-04-29T07:44:41.375Z,98.30
2023-04-29T07:45:41.428Z,98.10
2023-04-29T07:46:41.572Z,97.79
2023-04-29T07:47:41.662Z,98.10
2023-04-29T07:48:41.744Z,97.69
2023-04-29T07:49:41.757Z,97.79
2023-04-29T07:50:41.823Z,97.17
2023-04-29T07:51:41.919Z,97.17
2023-04-29T07:52:42.031Z,97.28
2023-04-29T07:53:42.104Z,97.38
2023-04-29T07:54:42.150Z,97.38
2023-04-29T07:55:42.293Z,97.38
2023-04-29T07:56:42.278Z,96.56
2023-04-29T07:57:42.367Z,96.77
2023-04-29T07:58:42.468Z,97.17
2023-04-29T07:59:42.579Z,96.97
2023-04-29T08:00:42.650Z,96.46
2023-04-29T08:01:42.709Z,95.85
2023-04-29T08:02:42.975Z,96.26
2023-04-29T08:03:43.054Z,95.85
2023-04-29T08:04:43.188Z,96.36
2023-04-29T08:05:43.351Z,96.97
2023-04-29T08:06:43.113Z,96.20
2023-04-29T08:07:43.216Z,96.36
2023-04-29T08:08:43.301Z,96.77
2023-04-29T08:09:43.389Z,96.97
2023-04-29T08:10:43.501Z,96.26
2023-04-29T08:11:43.589Z,96.10
2023-04-29T08:12:43.640Z,96.46
2023-04-29T08:13:43.750Z,96.56
2023-04-29T08:14:43.804Z,96.56
2023-04-29T08:15:43.873Z,95.44
2023-04-29T08:16:44.089Z,95.48
2023-04-29T08:17:44.046Z,95.85
2023-04-29T08:18:44.147Z,96.30
2023-04-29T08:19:44.204Z,96.41
2023-04-29T08:20:44.287Z,96.61
2023-04-29T08:21:44.694Z,96.81
2023-04-29T08:22:44.495Z,96.51
2023-04-29T08:23:44.536Z,97.22
2023-04-29T08:24:44.572Z,97.22
2023-04-29T08:25:44.654Z,97.02
2023-04-29T08:26:44.711Z,97.12
2023-04-29T08:27:44.914Z,97.33
2023-04-29T08:28:44.900Z,97.37
2023-04-29T08:29:44.974Z,97.42
2023-04-29T08:31:42.885Z,97.78
2023-04-29T08:32:43.004Z,97.88
2023-04-29T08:33:42.989Z,98.29
2023-04-29T08:34:43.075Z,97.67
2023-04-29T08:35:43.176Z,97.88
2023-04-29T08:36:43.228Z,97.47
2023-04-29T08:37:43.294Z,97.78
2023-04-29T08:38:43.454Z,97.37
2023-04-29T08:39:43.485Z,97.67
2023-04-29T08:40:43.578Z,97.57
2023-04-29T08:41:43.630Z,97.37
2023-04-29T08:42:43.643Z,96.34
2023-04-29T08:43:43.757Z,96.75
2023-04-29T08:44:43.854Z,96.55
2023-04-29T08:45:44.032Z,96.25
2023-04-29T08:46:43.993Z,96.04
2023-04-29T08:47:44.133Z,96.14
2023-04-29T08:48:45.386Z,95.94
2023-04-29T08:49:44.274Z,95.94
2023-04-29T08:50:44.364Z,95.94
2023-04-29T08:51:44.409Z,95.02
2023-04-29T08:52:44.511Z,95.43
2023-04-29T08:53:44.593Z,95.53
2023-04-29T08:54:44.677Z,95.12
2023-04-29T08:55:44.873Z,95.12
2023-04-29T08:56:44.872Z,94.71
2023-04-29T08:57:45.041Z,94.81
2023-04-29T08:58:45.070Z,94.60
2023-04-29T08:59:45.143Z,95.06
2023-04-29T09:00:45.280Z,95.32
2023-04-29T09:01:45.426Z,95.12
2023-04-29T09:02:45.432Z,95.32
2023-04-29T09:03:45.929Z,94.92
2023-04-29T09:04:45.695Z,95.02
2023-04-29T09:05:45.641Z,95.02
2023-04-29T09:06:45.715Z,95.02
2023-04-29T09:07:45.827Z,95.22
2023-04-29T09:08:45.902Z,95.22
2023-04-29T09:09:46.057Z,95.43
2023-04-29T09:10:46.063Z,95.12
2023-04-29T09:11:46.153Z,94.60
2023-04-29T09:12:46.258Z,95.12
2023-04-29T09:13:46.351Z,95.02
2023-04-29T09:14:46.424Z,94.92
2023-04-29T09:15:46.482Z,95.32
2023-04-29T09:16:46.678Z,95.22
2023-04-29T09:17:46.847Z,95.22
2023-04-29T09:18:46.811Z,95.32
2023-04-29T09:19:46.947Z,95.37
2023-04-29T09:20:46.992Z,95.78
2023-04-29T09:21:47.045Z,95.67
2023-04-29T09:22:47.159Z,95.17
2023-04-29T09:23:47.204Z,95.47
2023-04-29T09:24:48.236Z,95.51
2023-04-29T09:25:47.315Z,95.21
2023-04-29T09:26:47.702Z,95.62
2023-04-29T09:27:47.539Z,95.51
2023-04-29T09:28:47.635Z,95.41
2023-04-29T09:29:47.713Z,95.41
2023-04-29T09:30:47.769Z,94.75
2023-04-29T09:31:47.884Z,94.80
2023-04-29T09:32:48.045Z,94.70
2023-04-29T09:33:48.053Z,94.29
2023-04-29T09:34:48.105Z,94.80
2023-04-29T09:35:48.191Z,95.10
2023-04-29T09:36:48.277Z,94.84
2023-04-29T09:37:48.332Z,94.80
2023-04-29T09:38:48.470Z,94.70
2023-04-29T09:39:48.494Z,94.84
2023-04-29T09:40:59.121Z,95.10
2023-04-29T09:41:49.625Z,94.95
2023-04-29T09:42:48.687Z,95.15
2023-04-29T09:43:48.802Z,95.51
2023-04-29T09:44:48.974Z,95.66
2023-04-29T09:45:48.976Z,95.56
2023-04-29T09:46:49.058Z,95.87
2023-04-29T09:47:49.134Z,95.66
2023-04-29T09:48:49.233Z,95.97
2023-04-29T09:49:49.347Z,96.07
2023-04-29T09:50:50.443Z,96.07
2023-04-29T09:51:49.427Z,96.07
2023-04-29T09:52:49.532Z,96.28
2023-04-29T09:53:49.622Z,96.07
2023-04-29T09:54:49.723Z,95.76
2023-04-29T09:55:49.844Z,95.87
2023-04-29T09:56:49.881Z,96.28
2023-04-29T09:57:49.955Z,96.58
2023-04-29T09:58:50.044Z,95.97
2023-04-29T09:59:50.227Z,96.38
2023-04-29T10:00:50.232Z,96.79
2023-04-29T10:01:50.433Z,96.69
2023-04-29T10:02:50.542Z,97.30
2023-04-29T10:03:50.563Z,97.30
2023-04-29T10:04:50.684Z,96.89
2023-04-29T10:05:50.750Z,97.20
2023-04-29T10:06:51.768Z,96.79
2023-04-29T10:07:50.814Z,96.89
2023-04-29T10:08:51.021Z,97.20
2023-04-29T10:09:51.066Z,97.30
2023-04-29T10:10:51.021Z,97.45
2023-04-29T10:11:51.101Z,96.99
2023-04-29T10:12:51.180Z,97.20
2023-04-29T10:13:51.261Z,97.34
2023-04-29T10:14:51.603Z,96.94
2023-04-29T10:15:51.466Z,97.24
2023-04-29T10:16:51.592Z,97.14
2023-04-29T10:17:51.611Z,96.83
2023-04-29T10:18:51.707Z,96.63
2023-04-29T10:19:51.760Z,96.22
2023-04-29T10:20:51.847Z,96.83
2023-04-29T10:21:51.980Z,96.73
2023-04-29T10:22:51.993Z,96.32
2023-04-29T10:23:52.147Z,96.42
2023-04-29T10:24:52.245Z,96.42
2023-04-29T10:25:52.215Z,96.32
2023-04-29T10:26:52.312Z,96.42
2023-04-29T10:27:52.401Z,96.94
2023-04-29T10:28:52.428Z,97.24
2023-04-29T10:29:52.549Z,97.55
2023-04-29T10:30:52.608Z,97.24
2023-04-29T10:31:52.960Z,95.97
2023-04-29T10:32:53.154Z,95.97
2023-04-29T10:33:52.805Z,95.91
2023-04-29T10:34:53.128Z,95.87
2023-04-29T10:35:53.003Z,95.97
2023-04-29T10:36:53.045Z,95.46
2023-04-29T10:37:53.245Z,95.25
2023-04-29T10:38:53.198Z,94.95
2023-04-29T10:39:53.308Z,94.84
2023-04-29T10:40:53.366Z,94.95
2023-04-29T10:41:53.476Z,94.84
2023-04-29T10:42:53.704Z,94.18
2023-04-29T10:43:53.728Z,94.29
2023-04-29T10:44:53.895Z,93.88
2023-04-29T10:45:53.883Z,93.88
2023-04-29T10:46:54.093Z,94.39
2023-04-29T10:47:54.084Z,93.98
2023-04-29T10:48:54.207Z,93.88
2023-04-29T10:49:54.136Z,93.98
2023-04-29T10:50:55.231Z,93.88
2023-04-29T10:51:54.320Z,93.77
2023-04-29T10:52:54.397Z,94.08
2023-04-29T10:53:54.561Z,93.47
2023-04-29T10:54:54.643Z,93.12
2023-04-29T10:55:54.645Z,93.01
2023-04-29T10:56:54.716Z,91.89
2023-04-29T10:57:54.804Z,93.01
2023-04-29T10:58:54.927Z,92.50
2023-04-29T10:59:55.005Z,92.71
2023-04-29T11:00:55.138Z,92.50
2023-04-29T11:01:55.172Z,93.38
2023-04-29T11:02:55.356Z,92.05
2023-04-29T11:03:55.947Z,93.28
2023-04-29T11:04:55.885Z,92.05
2023-04-29T11:05:55.528Z,90.82
2023-04-29T11:06:55.598Z,89.50
2023-04-29T11:07:55.677Z,89.59
2023-04-29T11:08:55.844Z,90.11
2023-04-29T11:09:55.876Z,90.31
2023-04-29T11:10:55.960Z,89.90
2023-04-29T11:11:56.020Z,88.17
2023-04-29T11:12:56.084Z,88.37
2023-04-29T11:13:56.198Z,88.26
2023-04-29T11:14:56.316Z,88.06
2023-04-29T11:15:56.366Z,88.57
2023-04-29T11:16:56.454Z,88.88
2023-04-29T11:17:56.566Z,88.57
2023-04-29T11:18:56.635Z,88.57
2023-04-29T11:19:56.799Z,88.98
2023-04-29T11:20:56.707Z,90.31
2023-04-29T11:21:56.835Z,90.06
2023-04-29T11:22:57.958Z,88.64
2023-04-29T11:23:57.008Z,88.74
2023-04-29T11:24:57.495Z,87.47
2023-04-29T11:25:57.125Z,87.67
2023-04-29T11:26:57.219Z,87.98
2023-04-29T11:27:57.318Z,88.24
2023-04-29T11:28:57.431Z,87.63
2023-04-29T11:29:57.461Z,86.88
2023-04-29T11:30:57.575Z,87.59
2023-04-29T11:31:57.718Z,85.14
2023-04-29T11:32:57.856Z,84.90
2023-04-29T11:33:57.740Z,83.98
2023-04-29T11:34:57.830Z,85.61
2023-04-29T11:35:57.947Z,83.87
2023-04-29T11:36:57.986Z,84.59
2023-04-29T11:37:58.065Z,83.98
2023-04-29T11:38:58.177Z,83.78
2023-04-29T11:39:58.244Z,83.37
2023-04-29T11:40:58.403Z,83.26
2023-04-29T11:41:58.442Z,84.08
2023-04-29T11:42:58.560Z,83.78
2023-04-29T11:43:58.665Z,84.18
2023-04-29T11:44:58.756Z,83.47
2023-04-29T11:45:58.827Z,83.37
2023-04-29T11:46:59.124Z,83.67
2023-04-29T11:47:58.997Z,81.70
2023-04-29T11:48:59.087Z,81.49
2023-04-29T11:49:59.115Z,81.29
2023-04-29T11:50:59.239Z,82.61
2023-04-29T11:51:59.283Z,84.14
2023-04-29T11:52:59.407Z,81.86
2023-04-29T11:53:59.454Z,80.54
2023-04-29T11:54:59.553Z,81.76
2023-04-29T11:55:59.672Z,80.64
2023-04-29T11:56:59.720Z,80.84
2023-04-29T11:57:59.876Z,79.93
2023-04-29T11:58:59.938Z,78.70
2023-04-29T12:00:00.041Z,78.30
2023-04-29T12:01:00.121Z,78.19
2023-04-29T12:02:00.282Z,78.60
2023-04-29T12:03:00.343Z,78.91
2023-04-29T12:04:01.217Z,78.46
2023-04-29T12:05:00.928Z,78.77
2023-04-29T12:06:01.937Z,79.38
2023-04-29T12:07:01.404Z,77.85
2023-04-29T12:08:01.409Z,77.85
2023-04-29T12:09:01.714Z,77.75
2023-04-29T12:10:00.758Z,78.46
2023-04-29T12:11:00.879Z,78.77
2023-04-29T12:12:00.924Z,80.29
2023-04-29T12:13:01.025Z,79.27
2023-04-29T12:14:01.131Z,78.36
2023-04-29T12:15:01.186Z,77.55
2023-04-29T12:16:01.369Z,77.85
2023-04-29T12:17:01.360Z,77.14
2023-04-29T12:18:01.481Z,77.95
2023-04-29T12:19:01.520Z,76.62
2023-04-29T12:20:01.632Z,77.44
2023-04-29T12:21:01.771Z,77.44
2023-04-29T12:22:01.758Z,76.53
2023-04-29T12:23:01.834Z,75.51
2023-04-29T12:24:01.931Z,75.81
2023-04-29T12:25:02.042Z,76.39
2023-04-29T12:26:02.090Z,75.81
2023-04-29T12:27:02.230Z,75.20
2023-04-29T12:28:02.259Z,74.79
2023-04-29T12:29:02.322Z,75.20
2023-04-29T12:30:02.430Z,75.64
2023-04-29T12:31:02.545Z,75.85
2023-04-29T12:32:02.597Z,76.35
2023-04-29T12:33:02.740Z,76.35
2023-04-29T12:34:02.754Z,75.95
2023-04-29T12:35:02.843Z,76.05
2023-04-29T12:36:02.934Z,76.35
2023-04-29T12:37:02.987Z,76.05
2023-04-29T12:38:03.113Z,76.25
2023-04-29T12:39:03.157Z,76.46
2023-04-29T12:40:03.242Z,77.37
2023-04-29T12:41:03.389Z,76.97
2023-04-29T12:42:03.392Z,77.03
2023-04-29T12:43:03.455Z,76.22
2023-04-29T12:44:03.530Z,76.08
2023-04-29T12:45:03.667Z,76.59
2023-04-29T12:46:03.738Z,76.08
2023-04-29T12:47:03.864Z,76.79
2023-04-29T12:48:08.799Z,75.98
2023-04-29T12:49:04.977Z,75.88
2023-04-29T12:50:04.087Z,76.18
2023-04-29T12:51:04.133Z,75.98
2023-04-29T12:52:04.245Z,74.86
2023-04-29T12:53:04.391Z,75.06
2023-04-29T12:54:04.627Z,75.60
2023-04-29T12:55:04.469Z,75.88
2023-04-29T12:56:04.560Z,76.53
2023-04-29T12:57:04.664Z,76.49
2023-04-29T12:58:04.837Z,76.12
2023-04-29T12:59:04.864Z,75.78
2023-04-29T13:00:04.896Z,75.98